createdAt,value
2019-02-14T00:01:21.317Z,76.93
2019-02-14T00:03:52.387Z,76.54
2019-02-14T00:06:21.809Z,76.47
2019-02-14T00:08:51.255Z,76.13
2019-02-14T00:11:23.481Z,76.30
2019-02-14T00:13:53.408Z,76.47
2019-02-14T00:16:22.835Z,76.47
2019-02-14T00:18:53.267Z,76.60
2019-02-14T00:21:22.717Z,76.70
2019-02-14T00:23:52.162Z,76.89
2019-02-14T00:26:21.667Z,76.83
2019-02-14T00:28:51.093Z,76.42
2019-02-14T00:31:20.533Z,76.59
2019-02-14T00:33:51.960Z,76.84
2019-02-14T00:36:21.410Z,76.78
2019-02-14T00:38:51.812Z,76.80
2019-02-14T00:41:21.254Z,76.76
2019-02-14T00:43:50.678Z,76.87
2019-02-14T00:46:20.112Z,76.75
2019-02-14T00:48:49.534Z,76.43
2019-02-14T00:51:19.544Z,76.59
2019-02-14T00:53:50.506Z,76.81
2019-02-14T00:56:20.512Z,76.90
2019-02-14T00:58:54.475Z,76.83
2019-02-14T01:01:23.979Z,76.75
2019-02-14T01:03:53.402Z,76.44
2019-02-14T01:06:24.386Z,76.52
2019-02-14T01:08:55.341Z,76.81
2019-02-14T01:11:24.777Z,76.90
2019-02-14T01:13:56.336Z,77.08
2019-02-14T01:16:26.277Z,77.20
2019-02-14T01:18:56.181Z,77.15
2019-02-14T01:21:25.603Z,77.02
2019-02-14T01:23:57.086Z,77.22
2019-02-14T01:26:26.528Z,77.25
2019-02-14T01:28:57.594Z,77.32
2019-02-14T01:31:27.040Z,77.39
2019-02-14T01:33:56.918Z,77.36
2019-02-14T01:36:26.358Z,77.29
2019-02-14T01:38:55.775Z,77.48
2019-02-14T01:41:31.148Z,77.61
2019-02-14T01:44:01.422Z,77.78
2019-02-14T01:46:31.097Z,77.84
2019-02-14T01:49:05.432Z,77.80
2019-02-14T01:51:35.943Z,77.71
2019-02-14T01:54:05.432Z,77.98
2019-02-14T01:56:35.441Z,77.81
2019-02-14T01:59:06.409Z,77.74
2019-02-14T02:01:35.914Z,77.64
2019-02-14T02:04:05.853Z,78.14
2019-02-14T02:06:35.361Z,78.15
2019-02-14T02:09:15.591Z,77.98
2019-02-14T02:11:45.173Z,77.95
2019-02-14T02:14:16.175Z,78.20
2019-02-14T02:16:45.621Z,78.30
2019-02-14T02:19:15.117Z,78.44
2019-02-14T02:21:45.567Z,78.57
2019-02-14T02:24:14.981Z,78.20
2019-02-14T02:26:44.487Z,78.55
2019-02-14T02:29:13.910Z,78.50
2019-02-14T02:31:44.449Z,78.51
2019-02-14T02:34:17.424Z,78.83
2019-02-14T02:36:46.921Z,79.01
2019-02-14T02:39:16.357Z,79.15
2019-02-14T02:41:47.539Z,79.32
2019-02-14T02:44:17.067Z,79.21
2019-02-14T02:46:46.511Z,78.96
2019-02-14T02:49:18.126Z,79.13
2019-02-14T02:51:48.558Z,78.80
2019-02-14T02:54:18.261Z,78.93
2019-02-14T02:56:48.285Z,79.00
2019-02-14T02:59:20.659Z,78.87
2019-02-14T03:01:52.918Z,78.96
2019-02-14T03:04:25.359Z,78.82
2019-02-14T03:06:55.917Z,78.92
2019-02-14T03:09:25.340Z,78.97
2019-02-14T03:11:55.929Z,78.93
2019-02-14T03:14:25.485Z,78.78
2019-02-14T03:16:56.825Z,79.14
2019-02-14T03:19:26.248Z,79.15
2019-02-14T03:21:55.674Z,78.78
2019-02-14T03:24:25.200Z,78.71
2019-02-14T03:26:55.180Z,78.70
2019-02-14T03:29:27.787Z,79.00
2019-02-14T03:31:57.457Z,78.59
2019-02-14T03:34:26.902Z,78.69
2019-02-14T03:36:56.318Z,78.78
2019-02-14T03:39:29.384Z,78.67
2019-02-14T03:41:58.816Z,78.76
2019-02-14T03:44:28.238Z,78.70
2019-02-14T03:46:57.816Z,78.64
2019-02-14T03:49:27.629Z,78.93
2019-02-14T03:51:58.331Z,78.87
2019-02-14T03:54:27.740Z,78.92
2019-02-14T03:57:03.256Z,79.12
2019-02-14T03:59:36.007Z,79.10
2019-02-14T04:02:07.581Z,79.27
2019-02-14T04:04:37.027Z,79.33
2019-02-14T04:07:06.468Z,79.39
2019-02-14T04:09:37.891Z,79.46
2019-02-14T04:12:07.394Z,79.50
2019-02-14T04:14:36.812Z,79.44
2019-02-14T04:17:14.391Z,79.55
2019-02-14T04:19:43.877Z,79.40
2019-02-14T04:22:13.319Z,79.36
2019-02-14T04:24:42.735Z,79.32
2019-02-14T04:27:12.170Z,79.30
2019-02-14T04:29:41.596Z,79.29
2019-02-14T04:32:11.103Z,79.40
2019-02-14T04:34:40.523Z,79.46
2019-02-14T04:37:11.327Z,79.54
2019-02-14T04:39:40.694Z,79.47
2019-02-14T04:42:10.129Z,79.44
2019-02-14T04:44:39.552Z,79.37
2019-02-14T04:47:08.999Z,79.41
2019-02-14T04:49:40.044Z,79.65
2019-02-14T04:52:09.481Z,79.65
2019-02-14T04:54:38.904Z,79.35
2019-02-14T04:57:08.352Z,79.48
2019-02-14T04:59:37.763Z,79.28
2019-02-14T05:02:10.237Z,79.45
2019-02-14T05:04:38.394Z,79.70
2019-02-14T05:07:08.785Z,79.76
2019-02-14T05:09:38.218Z,79.65
2019-02-14T05:12:07.636Z,79.56
2019-02-14T05:14:37.177Z,79.34
2019-02-14T05:17:06.604Z,79.36
2019-02-14T05:19:39.143Z,79.52
2019-02-14T05:22:08.597Z,79.31
2019-02-14T05:24:38.030Z,79.40
2019-02-14T05:27:07.454Z,79.41
2019-02-14T05:29:36.886Z,79.43
2019-02-14T05:32:06.306Z,79.30
2019-02-14T05:34:35.820Z,79.16
2019-02-14T05:37:06.283Z,79.40
2019-02-14T05:39:35.729Z,79.35
2019-02-14T05:42:05.214Z,79.68
2019-02-14T05:44:34.662Z,79.60
2019-02-14T05:47:04.148Z,79.10
2019-02-14T05:49:33.583Z,79.26
2019-02-14T05:52:02.999Z,79.39
2019-02-14T05:54:34.079Z,79.67
2019-02-14T05:57:03.499Z,79.61
2019-02-14T05:59:33.008Z,79.38
2019-02-14T06:02:02.427Z,79.42
2019-02-14T06:04:31.864Z,79.60
2019-02-14T06:07:01.490Z,79.69
2019-02-14T06:09:31.290Z,79.63
2019-02-14T06:12:00.708Z,79.81
2019-02-14T06:14:30.144Z,79.72
2019-02-14T06:16:59.579Z,79.53
2019-02-14T06:19:29.019Z,80.00
2019-02-14T06:21:58.441Z,80.03
2019-02-14T06:24:29.643Z,80.48
2019-02-14T06:26:59.065Z,80.47
2019-02-14T06:29:29.071Z,80.48
2019-02-14T06:31:58.501Z,80.66
2019-02-14T06:34:27.945Z,80.41
2019-02-14T06:36:57.372Z,80.48
2019-02-14T06:39:26.826Z,80.42
2019-02-14T06:41:56.238Z,80.71
2019-02-14T06:44:25.680Z,80.48
2019-02-14T06:46:55.173Z,80.36
2019-02-14T06:49:26.368Z,80.10
2019-02-14T06:51:55.733Z,79.62
2019-02-14T06:54:25.179Z,79.48
2019-02-14T06:56:54.602Z,80.08
2019-02-14T06:59:24.066Z,79.84
2019-02-14T07:01:53.451Z,80.00
2019-02-14T07:04:22.890Z,80.40
2019-02-14T07:06:52.373Z,80.18
2019-02-14T07:09:21.818Z,79.88
2019-02-14T07:11:51.303Z,79.62
2019-02-14T07:14:23.213Z,80.14
2019-02-14T07:16:52.653Z,79.87
2019-02-14T07:19:22.080Z,80.23
2019-02-14T07:21:51.517Z,79.91
2019-02-14T07:24:20.940Z,79.53
2019-02-14T07:26:50.447Z,79.28
2019-02-14T07:29:19.928Z,79.26
2019-02-14T07:31:49.374Z,79.28
2019-02-14T07:34:19.362Z,79.28
2019-02-14T07:36:50.490Z,79.25
2019-02-14T07:39:19.927Z,79.45
2019-02-14T07:41:49.437Z,79.25
2019-02-14T07:44:18.861Z,79.04
2019-02-14T07:46:48.367Z,79.19
2019-02-14T07:49:19.392Z,79.07
2019-02-14T07:51:49.107Z,79.30
2019-02-14T07:54:18.520Z,79.32
2019-02-14T07:56:48.235Z,79.22
2019-02-14T07:59:17.744Z,79.29
2019-02-14T08:01:47.250Z,79.25
2019-02-14T08:04:16.676Z,78.92
2019-02-14T08:06:46.126Z,78.50
2019-02-14T08:09:15.550Z,78.23
2019-02-14T08:11:44.998Z,78.10
2019-02-14T08:14:14.444Z,78.09
2019-02-14T08:16:43.878Z,78.39
2019-02-14T08:19:13.876Z,78.38
2019-02-14T08:21:43.294Z,78.18
2019-02-14T08:24:15.669Z,77.81
2019-02-14T08:26:45.104Z,78.11
2019-02-14T08:29:14.538Z,77.75
2019-02-14T08:31:45.630Z,77.57
2019-02-14T08:34:15.123Z,77.42
2019-02-14T08:36:44.556Z,77.15
2019-02-14T08:39:16.924Z,77.28
2019-02-14T08:41:46.367Z,77.23
2019-02-14T08:44:15.784Z,76.92
2019-02-14T08:46:45.216Z,76.92
2019-02-14T08:49:14.643Z,76.68
2019-02-14T08:51:44.071Z,75.79
2019-02-14T08:54:13.490Z,75.05
2019-02-14T08:56:42.935Z,74.84
2019-02-14T08:59:12.353Z,74.81
2019-02-14T09:01:41.800Z,74.57
2019-02-14T09:04:11.283Z,74.32
2019-02-14T09:06:40.793Z,73.51
2019-02-14T09:09:10.245Z,73.02
2019-02-14T09:11:39.732Z,72.58
2019-02-14T09:14:09.160Z,72.16
2019-02-14T09:16:40.795Z,72.04
2019-02-14T09:19:10.228Z,71.54
2019-02-14T09:21:42.274Z,70.61
2019-02-14T09:24:11.692Z,71.27
2019-02-14T09:26:43.915Z,71.06
2019-02-14T09:29:14.421Z,71.08
2019-02-14T09:31:44.009Z,70.45
2019-02-14T09:34:13.464Z,71.02
2019-02-14T09:36:42.955Z,69.80
2019-02-14T09:39:12.448Z,69.47
2019-02-14T09:41:41.970Z,69.63
2019-02-14T09:44:11.389Z,69.62
2019-02-14T09:46:42.537Z,69.54
2019-02-14T09:49:11.971Z,69.06
2019-02-14T09:51:41.740Z,69.31
2019-02-14T09:54:11.207Z,68.09
2019-02-14T09:56:40.615Z,67.50
2019-02-14T09:59:15.117Z,67.03
2019-02-14T10:01:44.545Z,66.96
2019-02-14T10:04:13.987Z,64.84
2019-02-14T10:06:43.403Z,65.60
2019-02-14T10:09:12.906Z,66.00
2019-02-14T10:11:42.353Z,65.55
2019-02-14T10:14:14.640Z,65.52
2019-02-14T10:16:44.085Z,65.23
2019-02-14T10:19:13.514Z,65.05
2019-02-14T10:21:43.038Z,64.04
2019-02-14T10:24:12.462Z,64.30
2019-02-14T10:26:41.893Z,64.96
2019-02-14T10:29:11.378Z,63.38
2019-02-14T10:31:40.888Z,62.86
2019-02-14T10:34:11.190Z,63.30
2019-02-14T10:36:40.678Z,62.25
2019-02-14T10:39:10.201Z,61.47
2019-02-14T10:41:39.713Z,61.33
2019-02-14T10:44:09.127Z,61.44
2019-02-14T10:46:38.597Z,61.77
2019-02-14T10:49:10.622Z,60.94
2019-02-14T10:51:42.909Z,60.71
2019-02-14T10:54:12.484Z,60.32
2019-02-14T10:56:44.707Z,59.72
2019-02-14T10:59:16.022Z,60.21
2019-02-14T11:01:45.551Z,60.31
2019-02-14T11:04:14.998Z,59.92
2019-02-14T11:06:44.457Z,57.98
2019-02-14T11:09:13.949Z,59.66
2019-02-14T11:11:44.879Z,59.63
2019-02-14T11:14:15.751Z,59.26
2019-02-14T11:16:45.173Z,59.67
2019-02-14T11:19:14.615Z,58.34
2019-02-14T11:21:45.553Z,57.51
2019-02-14T11:24:16.613Z,58.67
2019-02-14T11:26:46.667Z,58.36
2019-02-14T11:29:16.411Z,58.39
2019-02-14T11:31:45.824Z,58.10
2019-02-14T11:34:16.335Z,57.35
2019-02-14T11:36:45.773Z,56.91
2019-02-14T11:39:15.210Z,56.55
2019-02-14T11:41:46.151Z,56.55
2019-02-14T11:44:16.559Z,56.99
2019-02-14T11:46:51.597Z,57.22
2019-02-14T11:49:17.138Z,56.16
2019-02-14T11:51:46.576Z,55.95
2019-02-14T11:54:16.015Z,56.36
2019-02-14T11:56:45.444Z,54.94
2019-02-14T11:59:14.957Z,55.75
2019-02-14T12:01:55.167Z,56.42
2019-02-14T12:04:20.146Z,56.72
2019-02-14T12:06:52.637Z,56.72
2019-02-14T12:09:22.148Z,56.01
2019-02-14T12:11:55.744Z,56.54
2019-02-14T12:14:27.746Z,53.82
2019-02-14T12:16:59.979Z,53.82
2019-02-14T12:19:29.426Z,54.16
2019-02-14T12:21:58.865Z,54.09
2019-02-14T12:24:28.324Z,54.68
2019-02-14T12:26:57.779Z,53.46
2019-02-14T12:29:27.210Z,53.84
2019-02-14T12:31:56.732Z,53.98
2019-02-14T12:34:26.262Z,54.41
2019-02-14T12:36:57.232Z,53.75
2019-02-14T12:39:26.656Z,53.45
2019-02-14T12:41:56.100Z,53.31
2019-02-14T12:44:25.520Z,54.26
2019-02-14T12:46:55.034Z,54.05
2019-02-14T12:49:24.481Z,53.73
2019-02-14T12:51:55.417Z,53.49
2019-02-14T12:54:24.864Z,53.92
2019-02-14T12:56:54.283Z,53.14
2019-02-14T12:59:23.704Z,51.97
2019-02-14T13:01:53.282Z,52.79
2019-02-14T13:04:24.438Z,52.46
2019-02-14T13:06:53.822Z,48.99
2019-02-14T13:09:24.374Z,49.76
2019-02-14T13:11:53.807Z,50.86
2019-02-14T13:14:23.265Z,50.06
2019-02-14T13:16:52.744Z,46.73
2019-02-14T13:19:22.170Z,47.08
2019-02-14T13:21:51.744Z,46.66
2019-02-14T13:24:28.176Z,43.99
2019-02-14T13:27:00.858Z,41.88
2019-02-14T13:29:30.404Z,39.99
2019-02-14T13:31:59.838Z,39.95
2019-02-14T13:34:30.394Z,39.41
2019-02-14T13:37:02.047Z,39.53
2019-02-14T13:39:32.600Z,40.26
2019-02-14T13:42:02.025Z,39.89
2019-02-14T13:44:31.535Z,41.06
2019-02-14T13:47:00.955Z,40.83
2019-02-14T13:49:32.685Z,40.61
2019-02-14T13:52:02.088Z,40.12
2019-02-14T13:54:31.588Z,38.45
2019-02-14T13:57:01.014Z,38.75
2019-02-14T13:59:32.087Z,36.14
2019-02-14T14:02:03.569Z,36.10
2019-02-14T14:04:32.963Z,35.90
2019-02-14T14:07:03.710Z,35.92
2019-02-14T14:09:38.732Z,36.47
2019-02-14T14:12:04.314Z,36.64
2019-02-14T14:14:34.315Z,36.90
2019-02-14T14:17:06.543Z,37.68
2019-02-14T14:19:35.978Z,37.71
2019-02-14T14:22:07.196Z,38.30
2019-02-14T14:24:39.174Z,39.07
2019-02-14T14:27:07.811Z,39.67
2019-02-14T14:29:38.384Z,39.28
2019-02-14T14:32:07.804Z,38.36
2019-02-14T14:34:37.252Z,39.79
2019-02-14T14:37:06.671Z,38.93
2019-02-14T14:39:36.108Z,38.92
2019-02-14T14:42:07.185Z,39.43
2019-02-14T14:44:38.270Z,39.82
2019-02-14T14:47:09.131Z,39.52
2019-02-14T14:49:38.572Z,40.99
2019-02-14T14:52:08.064Z,40.32
2019-02-14T14:54:37.498Z,40.97
2019-02-14T14:57:06.919Z,41.24
2019-02-14T14:59:37.890Z,41.08
2019-02-14T15:02:07.305Z,41.39
2019-02-14T15:04:36.880Z,41.97
2019-02-14T15:07:06.364Z,41.50
2019-02-14T15:09:35.795Z,42.04
2019-02-14T15:12:05.220Z,41.80
2019-02-14T15:14:34.644Z,41.06
2019-02-14T15:17:05.734Z,41.70
2019-02-14T15:19:35.320Z,41.64
2019-02-14T15:22:06.351Z,41.30
2019-02-14T15:24:35.848Z,40.92
2019-02-14T15:27:05.267Z,41.79
2019-02-14T15:29:37.660Z,41.36
2019-02-14T15:32:07.078Z,40.78
2019-02-14T15:34:36.522Z,41.07
2019-02-14T15:37:06.039Z,41.26
2019-02-14T15:39:36.019Z,41.66
2019-02-14T15:42:05.433Z,41.10
2019-02-14T15:44:34.867Z,41.75
2019-02-14T15:47:04.333Z,42.43
2019-02-14T15:49:33.753Z,42.76
2019-02-14T15:52:05.503Z,43.01
2019-02-14T15:54:35.442Z,43.23
2019-02-14T15:57:05.001Z,43.83
2019-02-14T15:59:35.608Z,44.60
2019-02-14T16:02:06.238Z,46.21
2019-02-14T16:04:36.153Z,45.62
2019-02-14T16:07:06.235Z,46.64
2019-02-14T16:09:38.154Z,46.67
2019-02-14T16:12:06.883Z,48.90
2019-02-14T16:14:36.297Z,48.90
2019-02-14T16:17:06.757Z,48.39
2019-02-14T16:19:37.092Z,48.50
2019-02-14T16:22:06.535Z,48.50
2019-02-14T16:24:35.961Z,49.40
2019-02-14T16:27:05.383Z,49.40
2019-02-14T16:29:34.836Z,49.67
2019-02-14T16:32:04.257Z,50.64
2019-02-14T16:34:33.745Z,51.49
2019-02-14T16:37:03.750Z,51.24
2019-02-14T16:39:33.160Z,52.18
2019-02-14T16:42:05.648Z,52.29
2019-02-14T16:44:35.047Z,53.84
2019-02-14T16:47:04.533Z,54.28
2019-02-14T16:49:33.991Z,54.53
2019-02-14T16:52:03.565Z,56.22
2019-02-14T16:54:32.991Z,56.20
2019-02-14T16:57:02.424Z,56.51
2019-02-14T16:59:31.836Z,57.04
2019-02-14T17:02:01.277Z,57.27
2019-02-14T17:04:30.687Z,57.69
2019-02-14T17:07:00.102Z,58.09
2019-02-14T17:09:29.556Z,58.49
2019-02-14T17:11:58.967Z,58.58
2019-02-14T17:14:30.033Z,58.67
2019-02-14T17:17:00.976Z,59.31
2019-02-14T17:19:30.482Z,60.26
2019-02-14T17:21:59.902Z,59.21
2019-02-14T17:24:31.493Z,59.22
2019-02-14T17:27:01.730Z,59.28
2019-02-14T17:29:31.292Z,59.92
2019-02-14T17:32:00.798Z,59.99
2019-02-14T17:34:30.211Z,60.19
2019-02-14T17:36:59.638Z,60.30
2019-02-14T17:39:29.130Z,60.93
2019-02-14T17:41:58.580Z,60.97
2019-02-14T17:44:28.016Z,60.86
2019-02-14T17:46:57.513Z,61.16
2019-02-14T17:49:26.962Z,60.39
2019-02-14T17:51:56.377Z,60.67
2019-02-14T17:54:27.359Z,60.96
2019-02-14T17:56:56.783Z,61.53
2019-02-14T17:59:26.201Z,61.82
2019-02-14T18:01:55.644Z,61.95
2019-02-14T18:04:28.085Z,62.51
2019-02-14T18:06:57.507Z,62.06
2019-02-14T18:09:27.046Z,62.25
2019-02-14T18:11:56.477Z,62.52
2019-02-14T18:14:26.143Z,62.82
2019-02-14T18:16:55.565Z,62.76
2019-02-14T18:19:25.021Z,62.92
2019-02-14T18:21:55.955Z,63.59
2019-02-14T18:24:28.362Z,64.00
2019-02-14T18:26:57.822Z,64.21
2019-02-14T18:29:27.238Z,64.15
2019-02-14T18:31:56.785Z,64.14
2019-02-14T18:34:26.208Z,64.19
2019-02-14T18:36:55.651Z,64.32
2019-02-14T18:39:26.550Z,64.47
2019-02-14T18:41:58.491Z,65.00
2019-02-14T18:44:29.377Z,65.02
2019-02-14T18:46:58.887Z,65.06
2019-02-14T18:49:28.371Z,65.04
2019-02-14T18:51:57.808Z,65.55
2019-02-14T18:54:27.220Z,65.15
2019-02-14T18:56:56.701Z,65.42
2019-02-14T18:59:26.203Z,65.59
2019-02-14T19:01:55.633Z,65.68
2019-02-14T19:04:25.086Z,65.84
2019-02-14T19:07:02.137Z,65.85
2019-02-14T19:09:31.672Z,65.89
2019-02-14T19:12:01.089Z,66.44
2019-02-14T19:14:30.583Z,66.51
2019-02-14T19:17:01.668Z,66.57
2019-02-14T19:19:32.189Z,66.56
2019-02-14T19:22:01.688Z,66.80
2019-02-14T19:24:31.226Z,66.92
2019-02-14T19:27:00.872Z,67.05
2019-02-14T19:29:30.320Z,67.15
2019-02-14T19:31:59.766Z,67.20
2019-02-14T19:34:29.223Z,67.74
2019-02-14T19:36:58.664Z,67.74
2019-02-14T19:39:28.156Z,67.71
2019-02-14T19:41:57.690Z,67.46
2019-02-14T19:44:27.401Z,68.47
2019-02-14T19:46:56.929Z,68.23
2019-02-14T19:49:26.350Z,68.61
2019-02-14T19:51:55.787Z,68.83
2019-02-14T19:54:25.223Z,69.30
2019-02-14T19:56:54.652Z,69.37
2019-02-14T19:59:24.098Z,69.37
2019-02-14T20:01:53.541Z,69.80
2019-02-14T20:04:22.967Z,70.09
2019-02-14T20:06:53.500Z,70.89
2019-02-14T20:09:22.992Z,70.60
2019-02-14T20:11:52.500Z,70.43
2019-02-14T20:14:22.032Z,70.40
2019-02-14T20:16:51.462Z,70.35
2019-02-14T20:19:20.917Z,70.28
2019-02-14T20:21:50.409Z,70.11
2019-02-14T20:24:21.738Z,70.37
2019-02-14T20:26:51.252Z,70.70
2019-02-14T20:29:20.673Z,70.76
2019-02-14T20:31:50.276Z,70.66
2019-02-14T20:34:22.683Z,70.83
2019-02-14T20:36:52.271Z,71.47
2019-02-14T20:39:21.750Z,71.80
2019-02-14T20:41:51.325Z,71.83
2019-02-14T20:44:20.838Z,71.96
2019-02-14T20:46:50.271Z,73.06
2019-02-14T20:49:19.762Z,73.69
2019-02-14T20:51:49.287Z,74.08
2019-02-14T20:54:18.775Z,74.08
2019-02-14T20:56:48.291Z,73.53
2019-02-14T20:59:18.791Z,73.59
2019-02-14T21:01:48.227Z,73.38
2019-02-14T21:04:17.878Z,73.28
2019-02-14T21:06:48.449Z,73.77
2019-02-14T21:09:17.931Z,73.49
2019-02-14T21:11:54.364Z,73.47
2019-02-14T21:14:18.497Z,73.01
2019-02-14T21:16:47.993Z,72.70
2019-02-14T21:19:17.423Z,73.08
2019-02-14T21:21:46.919Z,72.95
2019-02-14T21:24:16.495Z,72.88
2019-02-14T21:26:45.933Z,72.67
2019-02-14T21:29:15.405Z,72.85
2019-02-14T21:31:45.056Z,72.60
2019-02-14T21:34:14.494Z,72.88
2019-02-14T21:36:43.940Z,72.99
2019-02-14T21:39:13.376Z,72.80
2019-02-14T21:41:42.954Z,73.35
2019-02-14T21:44:12.380Z,72.81
2019-02-14T21:46:41.990Z,72.94
2019-02-14T21:49:11.496Z,73.09
2019-02-14T21:51:41.094Z,72.85
2019-02-14T21:54:10.637Z,73.10
2019-02-14T21:56:40.184Z,73.20
2019-02-14T21:59:09.661Z,72.97
2019-02-14T22:01:39.191Z,73.15
2019-02-14T22:04:09.595Z,73.37
2019-02-14T22:06:40.156Z,74.04
2019-02-14T22:09:11.307Z,74.46
2019-02-14T22:11:41.020Z,74.34
2019-02-14T22:14:10.433Z,73.67
2019-02-14T22:16:39.855Z,73.40
2019-02-14T22:19:09.358Z,73.86
2019-02-14T22:21:38.798Z,74.22
2019-02-14T22:24:08.225Z,74.71
2019-02-14T22:26:37.664Z,75.31
2019-02-14T22:29:07.081Z,75.22
2019-02-14T22:31:36.606Z,75.38
2019-02-14T22:34:06.034Z,75.28
2019-02-14T22:36:35.452Z,75.64
2019-02-14T22:39:06.334Z,75.98
2019-02-14T22:41:37.374Z,76.18
2019-02-14T22:44:06.812Z,76.34
2019-02-14T22:46:36.226Z,76.70
2019-02-14T22:49:07.336Z,76.80
2019-02-14T22:51:36.752Z,76.52
2019-02-14T22:54:06.207Z,76.43
2019-02-14T22:56:35.626Z,75.90
2019-02-14T22:59:05.044Z,76.35
2019-02-14T23:01:34.836Z,76.07
2019-02-14T23:04:04.457Z,75.65
2019-02-14T23:06:34.876Z,75.40
2019-02-14T23:09:06.642Z,75.83
2019-02-14T23:11:37.773Z,76.41
2019-02-14T23:14:07.257Z,76.61
2019-02-14T23:16:36.775Z,76.73
2019-02-14T23:19:06.318Z,76.86
2019-02-14T23:21:37.252Z,77.10
2019-02-14T23:24:06.672Z,77.53
2019-02-14T23:26:36.162Z,77.08
2019-02-14T23:29:05.638Z,77.02
2019-02-14T23:31:35.132Z,77.35
2019-02-14T23:34:04.642Z,77.15
2019-02-14T23:36:34.071Z,76.48
2019-02-14T23:39:04.725Z,76.44
2019-02-14T23:41:35.791Z,76.57
2019-02-14T23:44:05.286Z,76.24
2019-02-14T23:46:34.751Z,76.06
2019-02-14T23:49:04.165Z,76.22
2019-02-14T23:51:33.604Z,76.12
2019-02-14T23:54:03.027Z,76.30
2019-02-14T23:56:32.465Z,76.63
2019-02-14T23:59:01.889Z,76.85
